createdAt,value
2018-08-23T00:01:03.844Z,0
2018-08-23T00:02:13.808Z,0
2018-08-23T00:03:23.776Z,0
2018-08-23T00:04:33.793Z,0
2018-08-23T00:05:43.762Z,0
2018-08-23T00:06:53.735Z,0
2018-08-23T00:08:03.702Z,0
2018-08-23T00:09:13.668Z,0
2018-08-23T00:10:23.712Z,0
2018-08-23T00:11:33.416Z,0
2018-08-23T00:12:43.396Z,0
2018-08-23T00:13:53.545Z,0
2018-08-23T00:15:03.368Z,0
2018-08-23T00:16:13.333Z,0
2018-08-23T00:17:23.302Z,0
2018-08-23T00:18:33.275Z,0
2018-08-23T00:19:43.242Z,0
2018-08-23T00:20:53.231Z,0
2018-08-23T00:22:03.193Z,0
2018-08-23T00:23:13.165Z,0
2018-08-23T00:24:22.882Z,0
2018-08-23T00:25:32.845Z,0
2018-08-23T00:26:42.810Z,0
2018-08-23T00:27:52.256Z,0
2018-08-23T00:29:02.228Z,0
2018-08-23T00:30:12.193Z,0
2018-08-23T00:31:22.201Z,0
2018-08-23T00:32:32.178Z,0
2018-08-23T00:33:41.881Z,0
2018-08-23T00:34:51.599Z,0
2018-08-23T00:36:01.315Z,0
2018-08-23T00:37:11.016Z,0
2018-08-23T00:38:21.029Z,0
2018-08-23T00:39:31.015Z,0
2018-08-23T00:40:40.733Z,0
2018-08-23T00:41:50.453Z,0
2018-08-23T00:43:00.426Z,0
2018-08-23T00:44:10.388Z,0
2018-08-23T00:45:20.358Z,0
2018-08-23T00:46:30.072Z,0
2018-08-23T00:47:39.784Z,0
2018-08-23T00:48:49.742Z,0
2018-08-23T00:49:59.848Z,0
2018-08-23T00:51:09.832Z,0
2018-08-23T00:52:19.540Z,0
2018-08-23T00:53:29.245Z,0
2018-08-23T00:54:39.209Z,0
2018-08-23T00:55:48.677Z,0
2018-08-23T00:56:58.647Z,0
2018-08-23T00:58:08.098Z,0
2018-08-23T00:59:18.063Z,0
2018-08-23T01:00:28.045Z,0
2018-08-23T01:01:38.057Z,0
2018-08-23T01:02:48.039Z,0
2018-08-23T01:03:58.006Z,0
2018-08-23T01:05:07.974Z,0
2018-08-23T01:06:17.428Z,0
2018-08-23T01:07:27.141Z,0
2018-08-23T01:08:37.114Z,0
2018-08-23T01:09:46.564Z,0
2018-08-23T01:10:56.530Z,0
2018-08-23T01:12:06.493Z,0
2018-08-23T01:13:16.198Z,0
2018-08-23T01:14:26.171Z,0
2018-08-23T01:15:35.889Z,0
2018-08-23T01:16:45.853Z,0
2018-08-23T01:17:55.823Z,0
2018-08-23T01:19:05.786Z,0
2018-08-23T01:20:15.753Z,0
2018-08-23T01:21:25.461Z,0
2018-08-23T01:22:35.440Z,0
2018-08-23T01:23:45.455Z,0
2018-08-23T01:24:55.172Z,0
2018-08-23T01:26:04.623Z,0
2018-08-23T01:27:14.602Z,0
2018-08-23T01:28:24.331Z,0
2018-08-23T01:29:34.301Z,0
2018-08-23T01:30:44.285Z,0
2018-08-23T01:31:54.275Z,0
2018-08-23T01:33:03.979Z,0
2018-08-23T01:34:13.939Z,0
2018-08-23T01:35:23.643Z,0
2018-08-23T01:36:33.608Z,0
2018-08-23T01:37:43.311Z,0
2018-08-23T01:38:52.752Z,0
2018-08-23T01:40:02.722Z,0
2018-08-23T01:41:12.691Z,0
2018-08-23T01:42:22.655Z,0
2018-08-23T01:43:32.118Z,0
2018-08-23T01:44:42.093Z,0
2018-08-23T01:45:52.057Z,0
2018-08-23T01:47:01.771Z,0
2018-08-23T01:48:11.748Z,0
2018-08-23T01:49:21.715Z,0
2018-08-23T01:50:31.438Z,0
2018-08-23T01:51:41.407Z,0
2018-08-23T01:52:51.376Z,0
2018-08-23T01:54:01.344Z,0
2018-08-23T01:55:11.312Z,0
2018-08-23T01:56:21.015Z,0
2018-08-23T01:57:30.984Z,0
2018-08-23T01:58:40.959Z,0
2018-08-23T01:59:50.666Z,0
2018-08-23T02:01:00.366Z,0
2018-08-23T02:02:10.339Z,0
2018-08-23T02:03:20.294Z,0
2018-08-23T02:04:30.264Z,0
2018-08-23T02:05:40.247Z,0
2018-08-23T02:06:49.959Z,0
2018-08-23T02:07:59.929Z,0
2018-08-23T02:09:09.901Z,0
2018-08-23T02:10:19.869Z,0
2018-08-23T02:11:29.847Z,0
2018-08-23T02:12:39.557Z,0
2018-08-23T02:13:49.015Z,0
2018-08-23T02:14:58.771Z,0
2018-08-23T02:16:08.476Z,0
2018-08-23T02:17:18.457Z,0
2018-08-23T02:18:28.424Z,0
2018-08-23T02:19:38.128Z,0
2018-08-23T02:20:47.831Z,0
2018-08-23T02:21:57.805Z,0
2018-08-23T02:23:07.766Z,0
2018-08-23T02:24:17.465Z,0
2018-08-23T02:25:27.172Z,0
2018-08-23T02:26:37.200Z,0
2018-08-23T02:27:47.159Z,0
2018-08-23T02:28:56.858Z,0
2018-08-23T02:30:06.833Z,0
2018-08-23T02:31:16.799Z,0
2018-08-23T02:32:26.499Z,0
2018-08-23T02:33:36.211Z,0
2018-08-23T02:34:45.923Z,0
2018-08-23T02:35:55.881Z,0
2018-08-23T02:37:05.858Z,0
2018-08-23T02:38:16.279Z,0
2018-08-23T02:39:26.075Z,0
2018-08-23T02:40:36.050Z,0
2018-08-23T02:41:46.010Z,0
2018-08-23T02:42:55.980Z,0
2018-08-23T02:44:05.712Z,0
2018-08-23T02:45:15.690Z,0
2018-08-23T02:46:25.392Z,0
2018-08-23T02:47:35.098Z,0
2018-08-23T02:48:45.066Z,0
2018-08-23T02:49:54.776Z,0
2018-08-23T02:51:04.481Z,0
2018-08-23T02:52:14.458Z,0
2018-08-23T02:53:24.187Z,0
2018-08-23T02:54:34.151Z,0
2018-08-23T02:55:44.117Z,0
2018-08-23T02:56:54.106Z,0
2018-08-23T02:58:03.818Z,0
2018-08-23T02:59:13.770Z,0
2018-08-23T03:00:23.772Z,0
2018-08-23T03:01:33.246Z,0
2018-08-23T03:02:43.212Z,0
2018-08-23T03:03:52.916Z,0
2018-08-23T03:05:02.616Z,0
2018-08-23T03:06:12.589Z,0
2018-08-23T03:07:22.291Z,0
2018-08-23T03:08:32.257Z,0
2018-08-23T03:09:42.231Z,0
2018-08-23T03:10:51.942Z,0
2018-08-23T03:12:01.911Z,0
2018-08-23T03:13:11.868Z,0
2018-08-23T03:14:21.668Z,0
2018-08-23T03:15:31.632Z,0
2018-08-23T03:16:41.617Z,0
2018-08-23T03:17:51.324Z,0
2018-08-23T03:19:01.040Z,0
2018-08-23T03:20:11.017Z,0
2018-08-23T03:21:20.978Z,0
2018-08-23T03:22:30.957Z,0
2018-08-23T03:23:40.922Z,0
2018-08-23T03:24:50.622Z,0
2018-08-23T03:26:00.576Z,4
2018-08-23T03:27:10.286Z,4
2018-08-23T03:28:20.000Z,0
2018-08-23T03:29:29.189Z,4
2018-08-23T03:30:39.161Z,4
2018-08-23T03:31:49.254Z,4
2018-08-23T03:32:59.223Z,8
2018-08-23T03:34:08.936Z,8
2018-08-23T03:35:18.638Z,8
2018-08-23T03:36:28.335Z,12
2018-08-23T03:37:38.315Z,16
2018-08-23T03:38:48.014Z,16
2018-08-23T03:39:57.735Z,24
2018-08-23T03:41:07.698Z,28
2018-08-23T03:42:17.455Z,32
2018-08-23T03:43:27.452Z,36
2018-08-23T03:44:37.425Z,44
2018-08-23T03:45:47.174Z,52
2018-08-23T03:46:57.136Z,64
2018-08-23T03:48:06.848Z,76
2018-08-23T03:49:16.553Z,88
2018-08-23T03:50:26.523Z,104
2018-08-23T03:51:36.217Z,120
2018-08-23T03:52:46.034Z,140
2018-08-23T03:53:56.001Z,164
2018-08-23T03:55:05.986Z,188
2018-08-23T03:56:15.688Z,212
2018-08-23T03:57:25.666Z,240
2018-08-23T03:58:35.624Z,272
2018-08-23T03:59:45.345Z,312
2018-08-23T04:00:55.047Z,348
2018-08-23T04:02:05.045Z,392
2018-08-23T04:03:15.022Z,440
2018-08-23T04:04:25.002Z,484
2018-08-23T04:05:34.978Z,536
2018-08-23T04:06:44.956Z,588
2018-08-23T04:07:54.925Z,640
2018-08-23T04:09:04.893Z,692
2018-08-23T04:10:14.872Z,744
2018-08-23T04:11:24.586Z,800
2018-08-23T04:12:34.298Z,860
2018-08-23T04:13:44.018Z,928
2018-08-23T04:14:53.992Z,1004
2018-08-23T04:16:03.704Z,1084
2018-08-23T04:17:13.426Z,1168
2018-08-23T04:18:23.404Z,1252
2018-08-23T04:19:33.117Z,1328
2018-08-23T04:20:42.825Z,1404
2018-08-23T04:21:52.782Z,1484
2018-08-23T04:23:02.878Z,1556
2018-08-23T04:24:12.853Z,1636
2018-08-23T04:25:22.868Z,1712
2018-08-23T04:26:32.577Z,1796
2018-08-23T04:27:42.534Z,1884
2018-08-23T04:28:52.578Z,1976
2018-08-23T04:30:02.547Z,2068
2018-08-23T04:31:12.254Z,2168
2018-08-23T04:32:22.229Z,2288
2018-08-23T04:33:32.218Z,2412
2018-08-23T04:34:42.183Z,2540
2018-08-23T04:35:52.211Z,2664
2018-08-23T04:37:01.920Z,2780
2018-08-23T04:38:11.638Z,2872
2018-08-23T04:39:21.600Z,2936
2018-08-23T04:40:31.575Z,2992
2018-08-23T04:41:41.574Z,3056
2018-08-23T04:42:51.542Z,3128
2018-08-23T04:44:01.508Z,3196
2018-08-23T04:45:11.475Z,3268
2018-08-23T04:46:21.455Z,3368
2018-08-23T04:47:31.423Z,3476
2018-08-23T04:48:41.410Z,3600
2018-08-23T04:49:51.388Z,3744
2018-08-23T04:51:01.369Z,3904
2018-08-23T04:52:11.341Z,4052
2018-08-23T04:53:21.320Z,4160
2018-08-23T04:54:31.286Z,4204
2018-08-23T04:55:41.274Z,4228
2018-08-23T04:56:51.243Z,4252
2018-08-23T04:58:00.955Z,4312
2018-08-23T04:59:10.938Z,4392
2018-08-23T05:00:20.900Z,4504
2018-08-23T05:01:30.622Z,4656
2018-08-23T05:02:40.332Z,4784
2018-08-23T05:03:50.071Z,4860
2018-08-23T05:05:00.091Z,4964
2018-08-23T05:06:10.077Z,5072
2018-08-23T05:07:20.068Z,5180
2018-08-23T05:08:30.039Z,5296
2018-08-23T05:09:40.015Z,5416
2018-08-23T05:10:49.984Z,5584
2018-08-23T05:11:59.948Z,5744
2018-08-23T05:13:09.914Z,5820
2018-08-23T05:14:19.885Z,5820
2018-08-23T05:15:29.873Z,5780
2018-08-23T05:16:39.835Z,5784
2018-08-23T05:17:49.793Z,5816
2018-08-23T05:18:59.548Z,5948
2018-08-23T05:20:09.511Z,6128
2018-08-23T05:21:19.493Z,6372
2018-08-23T05:22:29.484Z,6512
2018-08-23T05:23:39.286Z,6596
2018-08-23T05:24:49.001Z,6596
2018-08-23T05:25:58.977Z,6512
2018-08-23T05:27:08.947Z,6492
2018-08-23T05:28:18.994Z,6480
2018-08-23T05:29:29.000Z,6472
2018-08-23T05:30:38.973Z,6492
2018-08-23T05:31:48.968Z,6524
2018-08-23T05:32:58.695Z,6584
2018-08-23T05:34:08.422Z,6664
2018-08-23T05:35:18.400Z,6744
2018-08-23T05:36:28.376Z,6840
2018-08-23T05:37:38.341Z,6944
2018-08-23T05:38:48.068Z,7092
2018-08-23T05:39:57.777Z,7248
2018-08-23T05:41:07.752Z,7380
2018-08-23T05:42:17.725Z,7504
2018-08-23T05:43:27.457Z,7620
2018-08-23T05:44:37.484Z,7696
2018-08-23T05:45:47.457Z,7772
2018-08-23T05:46:57.429Z,7780
2018-08-23T05:48:07.421Z,7768
2018-08-23T05:49:17.114Z,7740
2018-08-23T05:50:27.071Z,7700
2018-08-23T05:51:37.056Z,7688
2018-08-23T05:52:47.257Z,7708
2018-08-23T05:53:56.965Z,7744
2018-08-23T05:55:06.943Z,7768
2018-08-23T05:56:16.911Z,7756
2018-08-23T05:57:26.367Z,7788
2018-08-23T05:58:36.341Z,7836
2018-08-23T05:59:46.076Z,7844
2018-08-23T06:00:56.045Z,7844
2018-08-23T06:02:05.755Z,7924
2018-08-23T06:03:15.729Z,7992
2018-08-23T06:04:25.465Z,8072
2018-08-23T06:05:35.458Z,8160
2018-08-23T06:06:45.167Z,8232
2018-08-23T06:07:54.875Z,8292
2018-08-23T06:09:04.871Z,8340
2018-08-23T06:10:14.859Z,8388
2018-08-23T06:11:24.823Z,8468
2018-08-23T06:12:34.590Z,8528
2018-08-23T06:13:44.569Z,8580
2018-08-23T06:14:54.555Z,8628
2018-08-23T06:16:03.736Z,8660
2018-08-23T06:17:13.455Z,8688
2018-08-23T06:18:23.425Z,8720
2018-08-23T06:19:33.138Z,8744
2018-08-23T06:20:42.848Z,8772
2018-08-23T06:21:52.809Z,8812
2018-08-23T06:23:02.791Z,8868
2018-08-23T06:24:12.776Z,8932
2018-08-23T06:25:22.497Z,8996
2018-08-23T06:26:32.223Z,9048
2018-08-23T06:27:41.422Z,9096
2018-08-23T06:28:51.135Z,9140
2018-08-23T06:30:00.853Z,9188
2018-08-23T06:31:10.315Z,9236
2018-08-23T06:32:20.283Z,9288
2018-08-23T06:33:30.316Z,9340
2018-08-23T06:34:39.669Z,9396
2018-08-23T06:35:49.982Z,9460
2018-08-23T06:36:59.701Z,9516
2018-08-23T06:38:09.659Z,9576
2018-08-23T06:39:19.377Z,9640
2018-08-23T06:40:29.341Z,9740
2018-08-23T06:41:39.052Z,9836
2018-08-23T06:42:49.020Z,9940
2018-08-23T06:43:58.214Z,10048
2018-08-23T06:45:07.676Z,10132
2018-08-23T06:46:17.603Z,10216
2018-08-23T06:47:27.065Z,10308
2018-08-23T06:48:36.006Z,10380
2018-08-23T06:49:45.728Z,10464
2018-08-23T06:50:54.926Z,10556
2018-08-23T06:52:04.713Z,10624
2018-08-23T06:53:14.490Z,10696
2018-08-23T06:54:24.222Z,10768
2018-08-23T06:55:34.202Z,10848
2018-08-23T06:56:44.185Z,10916
2018-08-23T06:57:54.166Z,10984
2018-08-23T06:59:04.224Z,11048
2018-08-23T07:00:13.994Z,11096
2018-08-23T07:01:23.784Z,11156
2018-08-23T07:02:33.846Z,11208
2018-08-23T07:03:43.303Z,11260
2018-08-23T07:04:53.280Z,11320
2018-08-23T07:06:02.737Z,11396
2018-08-23T07:07:12.855Z,11508
2018-08-23T07:08:22.895Z,11592
2018-08-23T07:09:32.640Z,11664
2018-08-23T07:10:42.203Z,11752
2018-08-23T07:11:52.315Z,11844
2018-08-23T07:13:01.896Z,11924
2018-08-23T07:14:11.649Z,11984
2018-08-23T07:15:21.376Z,12048
2018-08-23T07:16:31.123Z,12120
2018-08-23T07:17:41.410Z,12208
2018-08-23T07:18:51.477Z,12308
2018-08-23T07:20:01.191Z,12408
2018-08-23T07:21:11.001Z,12496
2018-08-23T07:22:21.026Z,12592
2018-08-23T07:23:30.751Z,12700
2018-08-23T07:24:40.477Z,12788
2018-08-23T07:25:50.472Z,12924
2018-08-23T07:26:59.978Z,13048
2018-08-23T07:28:09.693Z,13168
2018-08-23T07:29:18.928Z,13308
2018-08-23T07:30:28.939Z,13448
2018-08-23T07:31:39.020Z,13580
2018-08-23T07:32:49.073Z,13664
2018-08-23T07:33:59.136Z,13664
2018-08-23T07:35:09.144Z,13736
2018-08-23T07:36:18.903Z,13812
2018-08-23T07:37:28.884Z,13936
2018-08-23T07:38:38.865Z,14004
2018-08-23T07:39:49.011Z,14028
2018-08-23T07:40:58.728Z,14104
2018-08-23T07:42:08.541Z,14164
2018-08-23T07:43:18.661Z,14212
2018-08-23T07:44:28.982Z,14256
2018-08-23T07:45:39.246Z,14324
2018-08-23T07:46:49.274Z,14380
2018-08-23T07:47:59.271Z,14456
2018-08-23T07:49:09.017Z,14556
2018-08-23T07:50:19.025Z,14668
2018-08-23T07:51:29.184Z,14780
2018-08-23T07:52:39.099Z,14892
2018-08-23T07:53:48.599Z,15020
2018-08-23T07:54:58.363Z,15156
2018-08-23T07:56:08.336Z,15272
2018-08-23T07:57:17.830Z,15352
2018-08-23T07:58:27.600Z,15432
2018-08-23T07:59:37.584Z,15528
2018-08-23T08:00:47.641Z,15640
2018-08-23T08:01:57.359Z,15720
2018-08-23T08:03:07.338Z,15808
2018-08-23T08:04:17.059Z,15924
2018-08-23T08:05:27.059Z,16052
2018-08-23T08:06:37.090Z,16180
2018-08-23T08:07:47.075Z,16312
2018-08-23T08:08:57.097Z,16412
2018-08-23T08:10:06.838Z,16476
2018-08-23T08:11:16.570Z,16560
2018-08-23T08:12:26.594Z,16576
2018-08-23T08:13:36.581Z,16560
2018-08-23T08:14:46.474Z,16572
2018-08-23T08:15:56.409Z,16636
2018-08-23T08:17:06.134Z,16708
2018-08-23T08:18:16.150Z,16776
2018-08-23T08:19:25.607Z,16812
2018-08-23T08:20:35.352Z,16836
2018-08-23T08:21:45.396Z,16884
2018-08-23T08:22:55.604Z,16992
2018-08-23T08:24:05.704Z,23808
2018-08-23T08:25:15.697Z,35008
2018-08-23T08:26:25.681Z,36224
2018-08-23T08:27:35.431Z,35456
2018-08-23T08:28:45.152Z,36576
2018-08-23T08:29:55.167Z,36544
2018-08-23T08:31:04.891Z,36032
2018-08-23T08:32:14.892Z,36384
2018-08-23T08:33:24.950Z,38080
2018-08-23T08:34:34.930Z,38080
2018-08-23T08:35:44.901Z,39776
2018-08-23T08:36:54.889Z,39808
2018-08-23T08:38:04.608Z,40128
2018-08-23T08:39:14.336Z,40288
2018-08-23T08:40:24.325Z,41152
2018-08-23T08:41:34.314Z,42624
2018-08-23T08:42:44.555Z,42944
2018-08-23T08:43:54.340Z,44096
2018-08-23T08:45:04.066Z,44064
2018-08-23T08:46:14.040Z,43552
2018-08-23T08:47:24.047Z,43360
2018-08-23T08:48:34.040Z,44384
2018-08-23T08:49:43.768Z,46912
2018-08-23T08:50:53.751Z,48064
2018-08-23T08:52:03.481Z,46240
2018-08-23T08:53:12.962Z,48384
2018-08-23T08:54:22.985Z,49760
2018-08-23T08:55:32.956Z,48512
2018-08-23T08:56:43.154Z,47616
2018-08-23T08:57:53.764Z,50240
2018-08-23T08:59:03.847Z,51232
2018-08-23T09:00:13.580Z,50368
2018-08-23T09:01:23.293Z,49888
2018-08-23T09:02:33.014Z,50944
2018-08-23T09:03:42.999Z,53088
2018-08-23T09:04:52.981Z,55232
2018-08-23T09:06:02.963Z,56000
2018-08-23T09:07:12.987Z,56160
2018-08-23T09:08:22.730Z,56096
2018-08-23T09:09:32.781Z,55712
2018-08-23T09:10:42.280Z,54624
2018-08-23T09:11:52.290Z,55712
2018-08-23T09:13:02.343Z,56992
2018-08-23T09:14:12.323Z,58240
2018-08-23T09:15:22.313Z,60544
2018-08-23T09:16:32.323Z,60384
2018-08-23T09:17:42.324Z,61216
2018-08-23T09:18:52.861Z,60992
2018-08-23T09:20:02.929Z,62272
2018-08-23T09:21:12.951Z,62080
2018-08-23T09:22:22.952Z,63456
2018-08-23T09:23:32.747Z,64480
2018-08-23T09:24:42.756Z,64704
2018-08-23T09:25:52.748Z,65024
2018-08-23T09:27:02.735Z,67328
2018-08-23T09:28:12.221Z,68256
2018-08-23T09:29:21.946Z,68192
2018-08-23T09:30:31.407Z,71328
2018-08-23T09:31:41.397Z,67520
2018-08-23T09:32:51.117Z,69760
2018-08-23T09:34:01.108Z,68960
2018-08-23T09:35:11.608Z,71296
2018-08-23T09:36:21.878Z,70400
2018-08-23T09:37:31.872Z,73408
2018-08-23T09:38:41.947Z,73376
2018-08-23T09:39:51.960Z,72480
2018-08-23T09:41:01.961Z,75616
2018-08-23T09:42:11.977Z,76512
2018-08-23T09:43:21.999Z,75104
2018-08-23T09:44:32.061Z,77088
2018-08-23T09:45:42.104Z,77760
2018-08-23T09:46:52.092Z,76032
2018-08-23T09:48:02.078Z,69056
2018-08-23T09:49:12.088Z,75552
2018-08-23T09:50:22.087Z,77248
2018-08-23T09:51:32.078Z,76064
2018-08-23T09:52:41.809Z,77088
2018-08-23T09:53:51.783Z,81024
2018-08-23T09:55:01.789Z,81984
2018-08-23T09:56:11.520Z,79328
2018-08-23T09:57:21.252Z,85280
2018-08-23T09:58:30.974Z,84640
2018-08-23T09:59:40.713Z,83488
2018-08-23T10:00:50.447Z,86592
2018-08-23T10:02:00.444Z,89952
2018-08-23T10:03:10.472Z,87392
2018-08-23T10:04:20.688Z,89184
2018-08-23T10:05:30.489Z,89280
2018-08-23T10:06:40.485Z,88608
2018-08-23T10:07:49.951Z,88096
2018-08-23T10:08:59.675Z,91392
2018-08-23T10:10:09.674Z,87040
2018-08-23T10:11:19.863Z,86176
2018-08-23T10:12:30.066Z,90688
2018-08-23T10:13:40.060Z,96576
2018-08-23T10:14:50.010Z,93632
2018-08-23T10:16:00.004Z,94848
2018-08-23T10:17:09.731Z,91488
2018-08-23T10:18:19.445Z,92704
2018-08-23T10:19:29.446Z,90240
2018-08-23T10:20:39.459Z,90656
2018-08-23T10:21:49.440Z,86048
2018-08-23T10:22:59.488Z,95104
2018-08-23T10:24:09.259Z,99456
2018-08-23T10:25:19.247Z,97440
2018-08-23T10:26:29.405Z,89248
2018-08-23T10:27:39.511Z,89088
2018-08-23T10:28:49.285Z,94624
2018-08-23T10:29:58.842Z,93792
2018-08-23T10:31:08.578Z,91424
2018-08-23T10:32:18.872Z,95552
2018-08-23T10:33:29.140Z,99968
2018-08-23T10:34:38.859Z,101408
2018-08-23T10:35:48.852Z,98624
2018-08-23T10:36:58.848Z,105152
2018-08-23T10:38:08.669Z,99552
2018-08-23T10:39:18.412Z,100576
2018-08-23T10:40:28.161Z,110272
2018-08-23T10:41:38.149Z,105600
2018-08-23T10:42:47.890Z,101472
2018-08-23T10:43:57.884Z,93856
2018-08-23T10:45:07.870Z,102272
2018-08-23T10:46:17.600Z,108032
2018-08-23T10:47:27.590Z,98880
2018-08-23T10:48:37.316Z,99296
2018-08-23T10:49:47.310Z,91840
2018-08-23T10:50:57.288Z,99520
2018-08-23T10:52:07.471Z,99072
2018-08-23T10:53:17.483Z,101312
2018-08-23T10:54:27.257Z,107456
2018-08-23T10:55:37.260Z,112192
2018-08-23T10:56:47.027Z,111168
2018-08-23T10:57:57.023Z,105824
2018-08-23T10:59:07.479Z,104672
2018-08-23T11:00:17.598Z,101504
2018-08-23T11:01:27.597Z,108128
2018-08-23T11:02:37.579Z,109600
2018-08-23T11:03:47.603Z,104576
2018-08-23T11:04:57.596Z,111936
2018-08-23T11:06:07.600Z,106880
2018-08-23T11:07:17.583Z,105216
2018-08-23T11:08:27.590Z,104960
2018-08-23T11:09:37.336Z,101760
2018-08-23T11:10:47.112Z,109152
2018-08-23T11:11:56.846Z,109216
2018-08-23T11:13:06.828Z,104608
2018-08-23T11:14:16.790Z,105312
2018-08-23T11:15:26.517Z,109184
2018-08-23T11:16:36.321Z,105152
2018-08-23T11:17:46.420Z,109888
2018-08-23T11:18:56.436Z,114560
2018-08-23T11:20:06.173Z,114400
2018-08-23T11:21:16.167Z,108544
2018-08-23T11:22:26.159Z,110464
2018-08-23T11:23:35.894Z,113472
2018-08-23T11:24:45.368Z,111936
2018-08-23T11:25:55.369Z,107744
2018-08-23T11:27:05.359Z,108064
2018-08-23T11:28:15.090Z,111040
2018-08-23T11:29:24.902Z,109824
2018-08-23T11:30:34.662Z,113440
2018-08-23T11:31:44.641Z,121056
2018-08-23T11:32:54.644Z,112960
2018-08-23T11:34:04.376Z,116032
2018-08-23T11:35:14.991Z,111264
2018-08-23T11:36:24.817Z,114656
2018-08-23T11:37:34.818Z,125856
2018-08-23T11:38:44.569Z,127008
2018-08-23T11:39:54.047Z,113632
2018-08-23T11:41:04.068Z,109312
2018-08-23T11:42:14.060Z,108448
2018-08-23T11:43:24.397Z,113888
2018-08-23T11:44:34.496Z,106592
2018-08-23T11:45:44.721Z,116128
2018-08-23T11:46:54.721Z,113408
2018-08-23T11:48:04.727Z,114464
2018-08-23T11:49:14.613Z,122496
2018-08-23T11:50:24.604Z,110816
2018-08-23T11:51:34.594Z,118944
2018-08-23T11:52:44.604Z,119040
2018-08-23T11:53:54.821Z,110880
2018-08-23T11:55:04.623Z,121088
2018-08-23T11:56:14.358Z,127360
2018-08-23T11:57:24.347Z,111136
2018-08-23T11:58:34.431Z,111296
2018-08-23T11:59:44.431Z,111872
2018-08-23T12:00:54.168Z,116352
2018-08-23T12:02:04.161Z,105696
2018-08-23T12:03:13.941Z,114624
2018-08-23T12:04:23.689Z,123680
2018-08-23T12:05:33.695Z,121888
2018-08-23T12:06:44.086Z,123456
2018-08-23T12:07:54.185Z,119872
2018-08-23T12:09:03.928Z,117120
2018-08-23T12:10:13.918Z,129312
2018-08-23T12:11:23.916Z,116480
2018-08-23T12:12:33.673Z,125472
2018-08-23T12:13:43.666Z,122880
2018-08-23T12:14:53.389Z,123136
2018-08-23T12:16:03.241Z,118464
2018-08-23T12:17:12.679Z,119104
2018-08-23T12:18:22.725Z,117600
2018-08-23T12:19:32.498Z,114304
2018-08-23T12:20:42.484Z,124768
2018-08-23T12:21:52.468Z,129312
2018-08-23T12:23:02.209Z,130144
2018-08-23T12:24:12.202Z,124800
2018-08-23T12:25:22.185Z,130656
2018-08-23T12:26:32.222Z,125344
2018-08-23T12:27:42.223Z,123264
2018-08-23T12:28:52.247Z,127456
2018-08-23T12:30:02.265Z,127840
2018-08-23T12:31:12.320Z,130016
2018-08-23T12:32:22.055Z,123488
2018-08-23T12:33:31.786Z,115232
2018-08-23T12:34:41.296Z,126400
2018-08-23T12:35:50.765Z,125216
2018-08-23T12:37:00.500Z,125440
2018-08-23T12:38:10.026Z,123136
2018-08-23T12:39:19.936Z,122272
2018-08-23T12:40:29.738Z,129568
2018-08-23T12:41:39.789Z,124736
2018-08-23T12:42:49.939Z,121920
2018-08-23T12:43:59.705Z,119744
2018-08-23T12:45:09.203Z,123616
2018-08-23T12:46:18.723Z,62752
2018-08-23T12:47:28.839Z,50080
2018-08-23T12:48:38.820Z,56896
2018-08-23T12:49:48.964Z,113728
2018-08-23T12:50:59.069Z,126048
2018-08-23T12:52:09.047Z,123328
2018-08-23T12:53:19.213Z,118656
2018-08-23T12:54:29.439Z,120352
2018-08-23T12:55:39.462Z,120736
2018-08-23T12:56:49.237Z,115008
2018-08-23T12:57:58.975Z,34880
2018-08-23T12:59:09.008Z,39616
2018-08-23T13:00:18.540Z,120192
2018-08-23T13:01:28.430Z,117344
2018-08-23T13:02:38.821Z,116032
2018-08-23T13:03:49.075Z,126816
2018-08-23T13:04:59.297Z,126368
2018-08-23T13:06:09.564Z,121536
2018-08-23T13:07:19.354Z,130592
2018-08-23T13:08:29.371Z,125504
2018-08-23T13:09:39.398Z,128416
2018-08-23T13:10:49.425Z,129856
2018-08-23T13:11:59.432Z,115360
2018-08-23T13:13:09.178Z,122816
2018-08-23T13:14:18.921Z,114944
2018-08-23T13:15:28.396Z,123168
2018-08-23T13:16:38.132Z,125440
2018-08-23T13:17:48.315Z,114624
2018-08-23T13:18:58.435Z,121920
2018-08-23T13:20:08.743Z,124064
2018-08-23T13:21:18.749Z,75712
2018-08-23T13:22:28.755Z,87168
2018-08-23T13:23:38.753Z,31488
2018-08-23T13:24:48.744Z,32224
2018-08-23T13:25:58.741Z,101216
2018-08-23T13:27:08.739Z,113984
2018-08-23T13:28:18.780Z,112928
2018-08-23T13:29:28.557Z,110208
2018-08-23T13:30:38.543Z,35648
2018-08-23T13:31:48.313Z,114912
2018-08-23T13:32:58.333Z,103712
2018-08-23T13:34:08.078Z,108448
2018-08-23T13:35:17.866Z,115520
2018-08-23T13:36:28.658Z,107328
2018-08-23T13:37:38.522Z,27840
2018-08-23T13:38:48.652Z,25536
2018-08-23T13:39:58.411Z,26752
2018-08-23T13:41:08.421Z,40928
2018-08-23T13:42:18.429Z,40864
2018-08-23T13:43:28.242Z,99328
2018-08-23T13:44:38.466Z,67104
2018-08-23T13:45:48.463Z,113856
2018-08-23T13:46:58.445Z,110080
2018-08-23T13:48:08.436Z,46848
2018-08-23T13:49:18.468Z,33568
2018-08-23T13:50:28.205Z,124096
2018-08-23T13:51:38.213Z,126816
2018-08-23T13:52:48.653Z,129440
2018-08-23T13:53:58.881Z,119168
2018-08-23T13:55:09.203Z,31776
2018-08-23T13:56:19.178Z,29856
2018-08-23T13:57:29.174Z,28960
2018-08-23T13:58:39.242Z,29184
2018-08-23T13:59:49.299Z,30784
2018-08-23T14:00:59.024Z,34976
2018-08-23T14:02:09.194Z,109152
2018-08-23T14:03:18.932Z,98752
2018-08-23T14:04:28.664Z,108608
2018-08-23T14:05:38.664Z,116928
2018-08-23T14:06:48.659Z,104096
2018-08-23T14:07:58.402Z,111424
2018-08-23T14:09:08.424Z,118976
2018-08-23T14:10:18.149Z,89568
2018-08-23T14:11:28.137Z,97376
2018-08-23T14:12:37.864Z,86816
2018-08-23T14:13:47.585Z,85920
2018-08-23T14:14:57.317Z,102944
2018-08-23T14:16:07.310Z,101920
2018-08-23T14:17:17.031Z,108640
2018-08-23T14:18:27.025Z,104928
2018-08-23T14:19:37.012Z,106496
2018-08-23T14:20:46.735Z,108672
2018-08-23T14:21:56.714Z,94464
2018-08-23T14:23:06.448Z,88416
2018-08-23T14:24:16.184Z,92864
2018-08-23T14:25:26.179Z,92256
2018-08-23T14:26:35.903Z,95392
2018-08-23T14:27:45.632Z,32160
2018-08-23T14:28:55.598Z,30176
2018-08-23T14:30:05.595Z,30848
2018-08-23T14:31:15.590Z,80320
2018-08-23T14:32:25.327Z,31296
2018-08-23T14:33:35.324Z,31072
2018-08-23T14:34:45.051Z,40992
2018-08-23T14:35:54.791Z,90048
2018-08-23T14:37:04.556Z,93248
2018-08-23T14:38:14.571Z,92992
2018-08-23T14:39:24.617Z,30176
2018-08-23T14:40:34.684Z,28640
2018-08-23T14:41:44.449Z,28672
2018-08-23T14:42:54.197Z,84480
2018-08-23T14:44:04.223Z,88640
2018-08-23T14:45:14.288Z,95136
2018-08-23T14:46:24.033Z,29440
2018-08-23T14:47:33.850Z,71776
2018-08-23T14:48:43.845Z,51104
2018-08-23T14:49:53.839Z,28160
2018-08-23T14:51:03.836Z,27360
2018-08-23T14:52:13.831Z,26688
2018-08-23T14:53:24.209Z,27520
2018-08-23T14:54:34.093Z,33440
2018-08-23T14:55:44.142Z,29792
2018-08-23T14:56:54.159Z,31200
2018-08-23T14:58:04.151Z,42592
2018-08-23T14:59:14.602Z,55552
2018-08-23T15:00:24.319Z,29792
2018-08-23T15:01:34.333Z,29760
2018-08-23T15:02:43.816Z,32512
2018-08-23T15:03:53.801Z,83584
2018-08-23T15:05:03.793Z,98464
2018-08-23T15:06:13.777Z,81216
2018-08-23T15:07:23.769Z,90688
2018-08-23T15:08:33.795Z,47808
2018-08-23T15:09:43.902Z,51200
2018-08-23T15:10:54.005Z,70272
2018-08-23T15:12:04.003Z,33440
2018-08-23T15:13:14.064Z,28832
2018-08-23T15:14:24.408Z,88960
2018-08-23T15:15:34.724Z,90176
2018-08-23T15:16:44.734Z,91808
2018-08-23T15:17:54.740Z,91520
2018-08-23T15:19:04.737Z,87680
2018-08-23T15:20:14.736Z,90112
2018-08-23T15:21:24.454Z,82144
2018-08-23T15:22:34.200Z,79424
2018-08-23T15:23:44.191Z,25888
2018-08-23T15:24:54.249Z,58592
2018-08-23T15:26:04.389Z,22752
2018-08-23T15:27:15.120Z,22656
2018-08-23T15:28:24.929Z,42624
2018-08-23T15:29:34.944Z,21504
2018-08-23T15:30:44.694Z,42080